Time;durP1;ratioP1;P1;durP2;ratioP2;P2;SDS_P1;SDS_P2;PMS_P1;PMS_P2;Temp;Humidity;BMP_temperature;BMP_pressure;BME280_temperature;BME280_humidity;BME280_pressure;Samples;Min_cycle;Max_cycle;Signal;HPM_P1;HPM_P2
2021/05/02 00:00:28;;;;;;;44.27;32.83;;;;;;;9.52;80.53;95526.09;1730259;82;21135;-79
2021/05/02 00:02:56;;;;;;;40.60;31.02;;;;;;;9.49;80.66;95524.39;1714613;80;21133;-78
2021/05/02 00:05:24;;;;;;;40.92;30.60;;;;;;;9.51;80.69;95527.09;1712358;82;21169;-78
2021/05/02 00:07:50;;;;;;;41.35;31.80;;;;;;;9.53;80.56;95513.42;1747512;80;21107;-79
2021/05/02 00:10:17;;;;;;;44.77;32.08;;;;;;;9.51;80.61;95487.39;1714557;82;21130;-79
2021/05/02 00:12:43;;;;;;;42.13;32.23;;;;;;;9.53;80.61;95470.63;1719849;82;21273;-79
2021/05/02 00:15:14;;;;;;;44.25;30.95;;;;;;;9.57;80.53;95481.41;1759868;80;21137;-79
2021/05/02 00:17:41;;;;;;;48.30;33.42;;;;;;;9.60;80.55;95497.89;1759762;80;21745;-79
2021/05/02 00:20:08;;;;;;;42.38;31.02;;;;;;;9.56;80.42;95479.31;1755799;80;21228;-79
2021/05/02 00:22:34;;;;;;;42.05;30.43;;;;;;;9.55;80.24;95479.52;1757149;80;21159;-79
2021/05/02 00:25:06;;;;;;;41.83;31.48;;;;;;;9.54;80.43;95463.16;1800623;78;21133;-78
2021/05/02 00:27:32;;;;;;;42.33;31.37;;;;;;;9.57;80.15;95458.06;1790801;78;21143;-78
2021/05/02 00:29:57;;;;;;;45.98;33.98;;;;;;;9.58;80.13;95460.45;1801168;78;21514;-78
2021/05/02 00:32:24;;;;;;;45.35;32.90;;;;;;;9.59;80.04;95471.13;1798368;78;21100;-79
2021/05/02 00:34:50;;;;;;;39.88;29.70;;;;;;;9.60;80.14;95468.07;1771913;80;21344;-80
2021/05/02 00:37:17;;;;;;;39.08;28.90;;;;;;;9.58;79.94;95460.95;1713089;82;21273;-79
2021/05/02 00:39:43;;;;;;;42.33;31.12;;;;;;;9.54;79.81;95450.19;1719549;81;21529;-79
2021/05/02 00:42:11;;;;;;;36.13;26.62;;;;;;;9.51;79.87;95447.99;1730656;81;21107;-79
2021/05/02 00:44:48;;;;;;;37.67;29.48;;;;;;;9.50;79.73;95446.40;1742620;79;21118;-78
2021/05/02 00:47:20;;;;;;;39.53;28.75;;;;;;;9.47;79.76;95445.50;1768620;79;21148;-79
2021/05/02 00:49:50;;;;;;;37.65;27.35;;;;;;;9.43;80.29;95437.00;1768635;79;21117;-80
2021/05/02 00:52:30;;;;;;;35.38;26.75;;;;;;;9.42;80.11;95439.29;1736923;80;21498;-78
2021/05/02 00:55:07;;;;;;;35.23;25.88;;;;;;;9.43;80.80;95439.09;1737746;81;21213;-78
2021/05/02 00:57:53;;;;;;;35.48;26.65;;;;;;;9.46;80.49;95430.94;1773072;79;21146;-79
2021/05/02 01:00:20;;;;;;;34.50;26.48;;;;;;;9.46;80.26;95428.34;1744244;81;21177;-80
2021/05/02 01:02:49;;;;;;;43.92;27.73;;;;;;;9.45;80.36;95424.16;1750663;80;21096;-79
2021/05/02 01:05:15;;;;;;;37.70;27.02;;;;;;;9.42;80.41;95414.16;1748808;81;21333;-80
2021/05/02 01:07:42;;;;;;;33.73;26.05;;;;;;;9.42;80.54;95408.17;1761273;80;21114;-80
2021/05/02 01:10:12;;;;;;;32.03;24.10;;;;;;;9.43;80.65;95406.68;1766308;80;21399;-80
2021/05/02 01:12:48;;;;;;;34.58;25.23;;;;;;;9.44;80.72;95388.86;1763843;80;21110;-79
2021/05/02 01:15:22;;;;;;;31.40;23.35;;;;;;;9.46;80.64;95379.08;1732243;81;21157;-80
2021/05/02 01:17:50;;;;;;;32.25;25.35;;;;;;;9.46;80.64;95371.30;1736208;81;21264;-78
2021/05/02 01:20:16;;;;;;;34.03;26.23;;;;;;;9.48;81.22;95369.30;1757577;80;21108;-78
2021/05/02 01:22:43;;;;;;;28.57;22.13;;;;;;;9.47;81.39;95361.23;1803407;78;21101;-79
2021/05/02 01:25:11;;;;;;;30.55;23.32;;;;;;;9.43;81.45;95357.41;1802958;78;21260;-78
2021/05/02 01:27:37;;;;;;;34.70;25.12;;;;;;;9.33;81.55;95346.66;1806889;78;21111;-78
2021/05/02 01:30:08;;;;;;;29.15;22.87;;;;;;;9.36;81.73;95354.03;1800239;78;21351;-79
2021/05/02 01:32:34;;;;;;;30.37;22.45;;;;;;;9.39;81.91;95347.16;1800152;78;21098;-79
2021/05/02 01:35:02;;;;;;;30.55;22.62;;;;;;;9.44;81.96;95339.59;1780369;78;21261;-79
2021/05/02 01:37:28;;;;;;;26.65;19.70;;;;;;;9.46;81.66;95335.50;1795013;78;21230;-79
2021/05/02 01:39:54;;;;;;;28.07;21.55;;;;;;;9.48;81.55;95333.00;1797116;78;21148;-79
2021/05/02 01:42:20;;;;;;;28.92;21.37;;;;;;;9.47;81.66;95330.11;1799658;78;21085;-79
2021/05/02 01:44:46;;;;;;;27.22;20.00;;;;;;;9.46;81.58;95313.46;1796648;78;21468;-79
2021/05/02 01:47:18;;;;;;;32.48;23.02;;;;;;;9.40;81.73;95298.69;1800234;78;21360;-79
2021/05/02 01:49:51;;;;;;;;;;;;;;;9.37;81.97;95298.59;1801155;78;21843;-79
2021/05/02 01:52:17;;;;;;;28.52;20.72;;;;;;;9.40;82.25;95305.17;1800498;78;20319;-79
2021/05/02 01:54:44;;;;;;;34.48;25.35;;;;;;;9.45;82.47;95295.02;1800040;78;21085;-79
2021/05/02 01:57:11;;;;;;;34.90;26.10;;;;;;;9.46;82.92;95288.33;1799365;78;21278;-79
2021/05/02 01:59:37;;;;;;;34.38;26.35;;;;;;;9.49;83.28;95280.14;1800898;78;21117;-79
2021/05/02 02:02:04;;;;;;;39.48;28.27;;;;;;;9.52;83.27;95280.23;1801196;78;21304;-78
2021/05/02 02:04:30;;;;;;;36.35;25.25;;;;;;;9.55;83.34;95266.86;1788312;78;21093;-78
2021/05/02 02:06:57;;;;;;;36.93;26.52;;;;;;;9.59;83.55;95250.69;1777641;78;21210;-78
2021/05/02 02:09:22;;;;;;;36.77;27.07;;;;;;;9.61;83.30;95234.45;1805162;78;21108;-78
2021/05/02 02:11:50;;;;;;;35.65;25.40;;;;;;;9.67;83.39;95225.05;1804510;78;21094;-78
2021/05/02 02:14:16;;;;;;;37.80;26.90;;;;;;;9.73;83.36;95220.83;1803107;78;21102;-78
2021/05/02 02:16:42;;;;;;;33.13;23.30;;;;;;;9.79;83.32;95216.14;1802983;78;21089;-79
2021/05/02 02:19:08;;;;;;;40.33;29.60;;;;;;;9.79;83.61;95213.05;1799872;78;21102;-78
2021/05/02 02:21:34;;;;;;;48.70;30.75;;;;;;;9.78;83.37;95217.14;1805526;78;21108;-78
2021/05/02 02:24:00;;;;;;;45.20;29.70;;;;;;;9.77;83.53;95220.74;1775191;78;21082;-78
2021/05/02 02:26:53;;;;;;;47.45;31.87;;;;;;;9.78;83.52;95231.41;1802849;78;21124;-78
2021/05/02 02:29:19;;;;;;;48.38;31.02;;;;;;;9.79;83.47;95227.31;1806131;78;21203;-78
2021/05/02 02:31:46;;;;;;;42.50;30.05;;;;;;;9.87;83.40;95221.09;1799449;78;21126;-78
2021/05/02 02:34:13;;;;;;;40.85;29.07;;;;;;;9.92;83.41;95195.31;1787258;78;21134;-78
2021/05/02 02:36:39;;;;;;;45.15;28.57;;;;;;;9.96;83.20;95185.34;1797528;78;21314;-79
2021/05/02 02:39:05;;;;;;;44.58;31.45;;;;;;;9.95;82.96;95179.86;1803936;78;21102;-78
2021/05/02 02:41:32;;;;;;;44.08;29.95;;;;;;;9.91;83.15;95176.86;1801949;78;21092;-79
2021/05/02 02:43:58;;;;;;;50.17;32.67;;;;;;;9.90;83.24;95170.08;1799898;78;21126;-79
2021/05/02 02:46:25;;;;;;;44.65;30.12;;;;;;;9.85;83.19;95160.33;1797649;78;21948;-79
2021/05/02 02:48:55;;;;;;;44.88;30.88;;;;;;;9.84;83.33;95160.53;1797528;78;21228;-79
2021/05/02 02:51:24;;;;;;;46.95;31.85;;;;;;;9.83;83.31;95161.54;1795633;78;21153;-79
2021/05/02 02:53:51;;;;;;;50.05;35.08;;;;;;;9.84;83.33;95163.13;1795954;78;21113;-80
2021/05/02 02:56:19;;;;;;;44.23;31.00;;;;;;;9.86;83.36;95162.42;1805150;78;22205;-79
2021/05/02 02:59:10;;;;;;;56.53;36.20;;;;;;;9.83;83.41;95158.95;1795989;78;21482;-79
2021/05/02 03:01:42;;;;;;;54.58;34.92;;;;;;;9.79;83.54;95152.08;1797562;78;21465;-79
2021/05/02 03:04:11;;;;;;;52.78;34.83;;;;;;;9.81;83.59;95145.39;1740628;78;21236;-80
2021/05/02 03:06:37;;;;;;;49.48;33.67;;;;;;;9.86;83.61;95144.26;1798881;78;21156;-80
2021/05/02 03:09:04;;;;;;;48.38;32.20;;;;;;;9.87;83.64;95119.91;1800411;78;21066;-78
2021/05/02 03:11:30;;;;;;;49.08;33.63;;;;;;;9.92;83.75;95114.87;1804682;78;21327;-78
2021/05/02 03:13:56;;;;;;;51.05;35.98;;;;;;;9.98;83.68;95115.86;1795073;78;21149;-78
2021/05/02 03:16:28;;;;;;;51.23;34.95;;;;;;;9.99;83.64;95115.66;1803118;78;21136;-78
2021/05/02 03:19:05;;;;;;;50.63;33.73;;;;;;;9.99;83.76;95111.76;1803475;78;21129;-78
2021/05/02 03:21:44;;;;;;;48.83;31.87;;;;;;;10.01;83.70;95116.23;1806868;78;22148;-78
2021/05/02 03:24:11;;;;;;;44.15;29.82;;;;;;;10.03;83.62;95115.52;1807091;78;21112;-78
2021/05/02 03:26:37;;;;;;;46.08;31.93;;;;;;;10.09;83.67;95118.59;1807268;79;21089;-78
2021/05/02 03:29:04;;;;;;;45.08;32.83;;;;;;;10.10;83.48;95116.80;1777553;79;21104;-78
2021/05/02 03:31:32;;;;;;;44.90;30.95;;;;;;;10.11;83.56;95111.89;1804842;79;21110;-78
2021/05/02 03:34:02;;;;;;;48.78;32.13;;;;;;;10.11;83.40;95110.09;1805784;79;21077;-79
2021/05/02 03:36:50;;;;;;;48.58;32.05;;;;;;;10.09;83.62;95099.13;1803769;79;21137;-79
2021/05/02 03:39:16;;;;;;;43.68;29.98;;;;;;;10.04;83.66;95101.54;1767429;79;21448;-78
2021/05/02 03:41:43;;;;;;;44.93;30.52;;;;;;;10.06;83.54;95103.92;1798040;79;21430;-78
2021/05/02 03:44:09;;;;;;;42.40;29.63;;;;;;;10.07;83.51;95105.01;1804287;79;21109;-79
2021/05/02 03:46:36;;;;;;;48.63;31.62;;;;;;;10.14;83.50;95105.78;1810927;78;21309;-78
2021/05/02 03:49:06;;;;;;;42.35;30.15;;;;;;;10.21;83.45;95101.36;1804532;78;21358;-79
2021/05/02 03:51:37;;;;;;;36.95;27.27;;;;;;;10.27;83.29;95098.95;1802078;79;21062;-79
2021/05/02 03:54:03;;;;;;;41.00;29.60;;;;;;;10.32;83.20;95091.31;1803141;79;21114;-78
2021/05/02 03:56:41;;;;;;;39.10;27.05;;;;;;;10.33;83.11;95097.59;1797562;79;21932;-78
2021/05/02 03:59:19;;;;;;;41.02;27.93;;;;;;;10.39;83.08;95111.02;1805523;79;21361;-79
2021/05/02 04:01:55;;;;;;;42.58;28.73;;;;;;;10.44;83.00;95107.80;1798359;79;21467;-78
2021/05/02 04:04:25;;;;;;;43.95;29.40;;;;;;;10.51;83.00;95123.62;1798752;79;21108;-79
2021/05/02 04:06:51;;;;;;;42.93;30.10;;;;;;;10.55;82.78;95123.98;1801810;79;21948;-79
2021/05/02 04:09:17;;;;;;;45.90;31.73;;;;;;;10.57;82.63;95128.96;1798001;78;21696;-79
2021/05/02 04:11:45;;;;;;;47.25;31.82;;;;;;;10.54;82.65;95148.36;1799468;78;21345;-79
2021/05/02 04:14:13;;;;;;;47.27;32.78;;;;;;;10.45;82.62;95156.14;1804000;79;21132;-79
2021/05/02 04:16:39;;;;;;;48.08;32.38;;;;;;;10.45;82.78;95171.22;1798174;79;21297;-79
2021/05/02 04:19:07;;;;;;;46.48;33.63;;;;;;;10.46;82.82;95191.48;1798496;79;21146;-79
2021/05/02 04:21:33;;;;;;;40.17;29.42;;;;;;;10.39;82.72;95185.52;1800963;79;22189;-80
2021/05/02 04:24:00;;;;;;;32.17;23.95;;;;;;;10.38;82.97;95171.74;1801726;78;21303;-79
2021/05/02 04:26:26;;;;;;;34.80;23.57;;;;;;;10.37;83.04;95156.38;1803559;78;22098;-79
2021/05/02 04:28:52;;;;;;;34.63;25.05;;;;;;;10.36;83.16;95156.08;1765080;78;21302;-79
2021/05/02 04:31:18;;;;;;;27.48;20.90;;;;;;;10.32;83.32;95145.33;1799742;78;21061;-79
2021/05/02 04:33:46;;;;;;;25.90;20.37;;;;;;;10.32;83.20;95118.07;1799194;78;21142;-79
2021/05/02 04:36:11;;;;;;;29.82;21.70;;;;;;;10.32;83.31;95096.50;1794622;78;21260;-79
2021/05/02 04:38:37;;;;;;;29.25;22.17;;;;;;;10.30;83.28;95092.83;1807559;78;21108;-79
2021/05/02 04:41:04;;;;;;;28.95;21.73;;;;;;;10.32;83.52;95084.31;1799034;78;21380;-79
2021/05/02 04:43:30;;;;;;;25.82;19.75;;;;;;;10.31;83.47;95076.74;1794427;78;21190;-79
2021/05/02 04:46:37;;;;;;;18.73;14.03;;;;;;;10.35;83.38;95074.01;1792240;78;21585;-79
2021/05/02 04:49:03;;;;;;;15.90;12.82;;;;;;;10.26;83.88;95045.44;1796695;78;21115;-79
2021/05/02 04:51:29;;;;;;;37.17;33.08;;;;;;;10.39;83.39;95074.66;1798221;78;21771;-78
2021/05/02 04:53:55;;;;;;;121.57;104.25;;;;;;;10.41;83.49;95068.78;1798425;78;21240;-78
2021/05/02 04:56:21;;;;;;;79.30;69.12;;;;;;;10.42;83.53;95056.09;1800418;78;21289;-78
2021/05/02 04:58:47;;;;;;;49.58;40.12;;;;;;;10.43;83.61;95042.09;1797752;78;21207;-78
2021/05/02 05:01:14;;;;;;;74.82;62.70;;;;;;;10.44;83.66;95033.30;1795144;78;21203;-78
2021/05/02 05:03:42;;;;;;;47.43;38.67;;;;;;;10.44;83.66;95018.22;1799631;78;21114;-78
2021/05/02 05:06:08;;;;;;;26.73;22.70;;;;;;;10.42;83.63;95011.94;1796307;78;21134;-78
2021/05/02 05:08:34;;;;;;;24.15;18.87;;;;;;;10.43;83.59;94999.75;1797308;78;21129;-78
2021/05/02 05:11:00;;;;;;;22.35;19.10;;;;;;;10.45;83.58;95001.63;1797808;78;21106;-78
2021/05/02 05:13:26;;;;;;;22.13;17.40;;;;;;;10.46;83.65;95016.98;1794305;78;21098;-79
2021/05/02 05:15:57;;;;;;;22.22;17.60;;;;;;;10.47;83.58;95028.97;1812564;78;21340;-78
2021/05/02 05:18:26;;;;;;;26.85;20.77;;;;;;;10.47;83.76;95030.77;1800248;78;21106;-80
2021/05/02 05:20:53;;;;;;;27.98;23.92;;;;;;;10.34;83.88;95006.22;1776144;79;21908;-80
2021/05/02 05:23:19;;;;;;;27.77;22.15;;;;;;;10.53;83.82;95040.30;1803952;78;21110;-80
2021/05/02 05:25:46;;;;;;;35.88;30.15;;;;;;;10.53;83.75;95022.91;1804433;79;21082;-80
2021/05/02 05:28:12;;;;;;;42.45;36.45;;;;;;;10.55;83.63;95035.67;1808628;78;21277;-80
2021/05/02 05:30:38;;;;;;;37.95;31.42;;;;;;;10.61;83.84;95037.94;1812730;78;21094;-80
2021/05/02 05:33:09;;;;;;;35.98;29.10;;;;;;;10.62;83.76;95026.54;1784110;78;21328;-80
2021/05/02 05:35:36;;;;;;;23.90;19.48;;;;;;;10.62;83.64;95019.55;1797968;78;21366;-80
2021/05/02 05:38:03;;;;;;;20.05;17.35;;;;;;;10.58;83.47;95004.61;1798835;79;22183;-79
2021/05/02 05:40:29;;;;;;;21.97;17.27;;;;;;;10.60;83.44;95002.08;1810924;78;21078;-80
2021/05/02 05:42:55;;;;;;;21.20;17.27;;;;;;;10.64;83.60;95003.23;1814648;78;21119;-79
2021/05/02 05:45:22;;;;;;;23.20;18.85;;;;;;;10.64;83.50;94978.55;1756572;80;21115;-80
2021/05/02 05:47:52;;;;;;;21.65;16.95;;;;;;;10.62;83.55;94950.70;1754555;81;21256;-80
2021/05/02 05:50:19;;;;;;;20.10;16.73;;;;;;;10.60;83.50;94955.33;1762412;80;21091;-78
2021/05/02 05:52:46;;;;;;;19.50;16.35;;;;;;;10.60;83.60;94944.94;1742265;80;21098;-79
2021/05/02 05:55:13;;;;;;;27.22;20.08;;;;;;;10.59;83.65;94956.34;1763712;80;21255;-79
2021/05/02 05:57:39;;;;;;;20.85;18.57;;;;;;;10.59;83.77;94962.83;1771665;80;21117;-78
2021/05/02 06:00:08;;;;;;;29.23;24.85;;;;;;;10.59;83.65;94959.45;1758099;80;21260;-78
2021/05/02 06:02:34;;;;;;;24.70;21.80;;;;;;;10.58;83.59;94957.86;1744675;81;21122;-78
2021/05/02 06:05:00;;;;;;;20.82;17.80;;;;;;;10.54;83.74;94953.58;1773195;80;21108;-79
2021/05/02 06:07:26;;;;;;;18.87;16.62;;;;;;;10.50;83.86;94945.94;1770460;80;21099;-78
2021/05/02 06:09:52;;;;;;;18.00;16.07;;;;;;;10.47;83.94;94940.67;1741246;80;21094;-79
2021/05/02 06:12:20;;;;;;;18.20;15.32;;;;;;;10.53;84.01;94928.62;1734251;81;21216;-79
2021/05/02 06:14:46;;;;;;;17.42;15.53;;;;;;;10.53;83.84;94922.92;1758382;81;21336;-79
2021/05/02 06:17:12;;;;;;;16.48;14.58;;;;;;;10.62;84.15;94921.34;1749536;81;21111;-79
2021/05/02 06:19:39;;;;;;;17.50;15.68;;;;;;;10.66;84.05;94910.30;1762903;81;21070;-80
2021/05/02 06:22:23;;;;;;;21.07;18.27;;;;;;;10.70;84.13;94898.95;1741159;81;21130;-80
2021/05/02 06:24:49;;;;;;;20.77;18.50;;;;;;;10.51;84.04;94871.70;1746582;81;21248;-78
2021/05/02 06:27:15;;;;;;;20.70;17.57;;;;;;;10.73;84.21;94893.31;1750293;81;21089;-79
2021/05/02 06:29:47;;;;;;;26.65;20.82;;;;;;;10.76;84.22;94891.10;1746801;81;21074;-78
2021/05/02 06:32:13;;;;;;;31.23;25.40;;;;;;;10.79;84.17;94880.77;1744388;81;21106;-79
2021/05/02 06:34:39;;;;;;;33.53;26.95;;;;;;;10.81;84.19;94881.34;1735533;81;21133;-78
2021/05/02 06:37:05;;;;;;;29.87;23.47;;;;;;;10.88;84.51;94883.84;1744268;81;21075;-81
2021/05/02 06:39:31;;;;;;;29.37;25.10;;;;;;;10.92;84.35;94870.22;1741278;81;21102;-80
2021/05/02 06:41:57;;;;;;;27.60;21.48;;;;;;;10.96;84.41;94860.16;1743616;81;21116;-79
2021/05/02 06:44:23;;;;;;;22.40;19.80;;;;;;;11.02;84.38;94865.77;1747748;81;21220;-79
2021/05/02 06:46:49;;;;;;;24.37;20.92;;;;;;;11.11;84.47;94857.95;1740725;81;21325;-80
2021/05/02 06:49:16;;;;;;;24.07;19.37;;;;;;;11.16;84.54;94849.48;1737018;81;21082;-79
2021/05/02 06:51:42;;;;;;;25.08;20.27;;;;;;;11.18;84.45;94851.35;1744798;81;21353;-79
2021/05/02 06:54:08;;;;;;;26.68;21.12;;;;;;;11.17;84.40;94851.07;1750725;81;21090;-80
2021/05/02 06:56:34;;;;;;;25.25;21.48;;;;;;;11.18;84.39;94852.65;1741609;81;21126;-80
2021/05/02 06:59:00;;;;;;;26.10;21.80;;;;;;;11.21;84.60;94854.80;1735876;81;21122;-80
2021/05/02 07:01:26;;;;;;;29.32;24.40;;;;;;;11.26;84.56;94864.05;1736894;81;21098;-78
2021/05/02 07:03:54;;;;;;;30.62;25.88;;;;;;;11.29;84.53;94853.20;1740005;81;21233;-79
2021/05/02 07:06:20;;;;;;;27.37;23.02;;;;;;;11.27;84.46;94839.63;1743664;81;21204;-79
2021/05/02 07:08:46;;;;;;;27.45;23.45;;;;;;;11.29;84.35;94830.59;1754642;81;21329;-79
2021/05/02 07:11:13;;;;;;;16.82;14.43;;;;;;;11.30;84.46;94829.56;1756127;81;21107;-79
2021/05/02 07:13:38;;;;;;;12.60;9.35;;;;;;;11.30;84.87;94813.17;1753309;81;22056;-79
2021/05/02 07:16:04;;;;;;;5.25;3.22;;;;;;;11.44;86.80;94821.05;1740965;81;21583;-79
2021/05/02 07:18:34;;;;;;;8.25;3.52;;;;;;;11.67;87.67;94805.95;1739705;81;21137;-79
2021/05/02 07:20:59;;;;;;;6.50;2.47;;;;;;;11.90;87.72;94795.59;1743322;81;21252;-80
2021/05/02 07:23:25;;;;;;;5.00;2.00;;;;;;;12.13;87.91;94793.95;1758403;81;21122;-79
2021/05/02 07:25:51;;;;;;;4.45;2.00;;;;;;;12.35;87.96;94794.13;1736213;81;21343;-80
2021/05/02 07:28:17;;;;;;;5.10;2.10;;;;;;;12.56;87.69;94795.60;1758312;81;21133;-80
2021/05/02 07:30:43;;;;;;;6.35;2.50;;;;;;;12.80;87.56;94794.19;1738167;81;21244;-79
2021/05/02 07:33:09;;;;;;;5.92;2.67;;;;;;;12.93;86.98;94779.56;1751889;81;21237;-79
2021/05/02 07:35:35;;;;;;;5.97;2.22;;;;;;;13.05;87.00;94780.81;1741786;81;21227;-80
2021/05/02 07:38:03;;;;;;;7.97;2.92;;;;;;;13.16;86.44;94776.02;1738305;81;21110;-79
2021/05/02 07:40:29;;;;;;;4.53;2.37;;;;;;;13.26;85.92;94797.09;1757440;81;21126;-79
2021/05/02 07:42:55;;;;;;;5.80;2.25;;;;;;;13.33;86.04;94790.41;1808294;78;21150;-80
2021/05/02 07:45:21;;;;;;;3.12;1.67;;;;;;;13.40;85.72;94807.50;1775263;79;21320;-80
2021/05/02 07:47:47;;;;;;;6.70;1.90;;;;;;;13.48;85.67;94806.30;1729299;81;21149;-80
2021/05/02 07:50:14;;;;;;;6.03;2.40;;;;;;;13.56;85.59;94802.00;1762839;80;21137;-81
2021/05/02 07:52:42;;;;;;;4.33;1.87;;;;;;;13.62;85.29;94801.03;1746661;80;21450;-79
2021/05/02 07:55:10;;;;;;;8.30;2.95;;;;;;;13.69;84.89;94800.89;1730973;81;21125;-80
2021/05/02 07:57:36;;;;;;;5.67;2.15;;;;;;;13.73;84.92;94815.83;1769557;79;21332;-80
2021/05/02 08:00:04;;;;;;;4.75;3.22;;;;;;;13.76;84.73;94821.08;1762566;79;21086;-80
2021/05/02 08:02:31;;;;;;;6.92;4.25;;;;;;;13.77;84.70;94823.45;1761940;80;21153;-80
2021/05/02 08:04:57;;;;;;;7.95;4.17;;;;;;;13.80;84.66;94839.14;1763976;79;21336;-80
2021/05/02 08:07:23;;;;;;;5.80;3.70;;;;;;;13.80;84.62;94835.23;1757642;79;21137;-81
2021/05/02 08:09:48;;;;;;;6.62;4.70;;;;;;;13.82;84.42;94842.30;1765372;79;21094;-80
2021/05/02 08:12:14;;;;;;;9.78;7.10;;;;;;;13.86;84.54;94842.13;1746100;79;21123;-80
2021/05/02 08:14:42;;;;;;;9.80;5.45;;;;;;;13.94;84.61;94846.13;1757418;80;21101;-80
2021/05/02 08:17:08;;;;;;;9.18;5.28;;;;;;;14.02;84.77;94856.19;1769159;79;21304;-80
2021/05/02 08:19:34;;;;;;;8.45;5.20;;;;;;;14.08;84.69;94849.48;1751425;80;21075;-80
2021/05/02 08:22:02;;;;;;;8.55;6.65;;;;;;;14.13;84.09;94852.66;1767800;79;21117;-80
2021/05/02 08:24:29;;;;;;;5.60;4.75;;;;;;;14.20;83.98;94850.69;1730797;81;21126;-79
2021/05/02 08:26:56;;;;;;;7.58;3.60;;;;;;;14.29;83.69;94854.45;1765870;79;21430;-79
2021/05/02 08:29:22;;;;;;;4.47;3.25;;;;;;;14.37;83.21;94849.34;1766309;79;21116;-79
2021/05/02 08:31:48;;;;;;;9.60;6.83;;;;;;;14.39;82.93;94854.59;1766010;80;21277;-80
2021/05/02 08:34:14;;;;;;;7.05;4.40;;;;;;;14.41;82.92;94866.11;1739639;80;21281;-81
2021/05/02 08:36:40;;;;;;;9.00;4.83;;;;;;;14.42;82.54;94865.86;1759328;80;21082;-78
2021/05/02 08:39:06;;;;;;;7.72;5.42;;;;;;;14.48;82.34;94871.99;1754979;80;21075;-79
2021/05/02 08:41:32;;;;;;;10.13;8.88;;;;;;;14.49;82.69;94901.02;1741416;81;21106;-79
2021/05/02 08:43:58;;;;;;;19.65;17.67;;;;;;;14.41;82.21;94923.08;1719359;82;21146;-79
2021/05/02 08:46:25;;;;;;;25.37;22.95;;;;;;;14.22;81.91;94924.37;1749467;81;21110;-80
2021/05/02 08:48:51;;;;;;;24.63;22.32;;;;;;;14.02;81.86;94933.23;1745334;79;21232;-80
2021/05/02 08:51:17;;;;;;;24.85;22.13;;;;;;;13.81;81.80;94946.45;1785574;79;21320;-80
2021/05/02 08:53:43;;;;;;;24.63;21.15;;;;;;;13.59;81.93;94948.97;1763322;79;21336;-80
2021/05/02 08:56:09;;;;;;;24.57;21.05;;;;;;;13.49;82.29;94954.00;1720266;80;21122;-80
2021/05/02 08:58:35;;;;;;;28.50;25.05;;;;;;;13.43;82.56;94960.16;1748379;79;21101;-80
2021/05/02 09:01:03;;;;;;;33.78;29.55;;;;;;;13.38;82.65;94959.56;1761760;79;21340;-81
2021/05/02 09:03:42;;;;;;;49.95;37.30;;;;;;;13.37;82.91;94961.11;1749123;80;21159;-80
2021/05/02 09:06:29;;;;;;;33.50;27.17;;;;;;;13.33;82.82;94961.27;1746802;80;21161;-81
2021/05/02 09:09:08;;;;;;;159.30;78.15;;;;;;;13.25;82.56;94957.23;1764967;80;21122;-80
2021/05/02 09:11:41;;;;;;;164.07;80.20;;;;;;;13.21;82.84;94963.43;1763221;80;21213;-82
2021/05/02 09:14:21;;;;;;;46.37;31.77;;;;;;;13.17;83.24;94966.17;1768604;80;21074;-80
2021/05/02 09:16:57;;;;;;;31.02;20.43;;;;;;;13.14;82.93;94975.77;1746811;80;21094;-81
2021/05/02 09:19:26;;;;;;;33.85;22.60;;;;;;;13.08;82.36;94980.61;1760602;80;21102;-81
2021/05/02 09:21:53;;;;;;;22.85;16.52;;;;;;;13.04;82.12;94991.74;1730625;80;21129;-80
2021/05/02 09:24:31;;;;;;;21.57;15.15;;;;;;;13.02;81.98;95001.10;1775838;79;21095;-79
2021/05/02 09:27:14;;;;;;;19.57;16.40;;;;;;;12.95;81.56;95013.45;1752302;81;21138;-81
2021/05/02 09:29:43;;;;;;;14.13;10.25;;;;;;;12.92;81.69;95033.47;1744743;80;21320;-81
2021/05/02 09:32:15;;;;;;;10.58;9.38;;;;;;;12.88;81.25;95040.17;1780697;79;21125;-80
2021/05/02 09:34:51;;;;;;;11.35;7.75;;;;;;;12.88;80.62;95044.08;1750497;81;21126;-80
2021/05/02 09:37:18;;;;;;;11.75;9.20;;;;;;;12.85;80.27;95062.76;1765611;79;21336;-80
2021/05/02 09:39:50;;;;;;;9.78;8.10;;;;;;;12.80;79.85;95057.44;1751696;80;21463;-81
2021/05/02 09:42:37;;;;;;;7.70;6.90;;;;;;;12.75;79.47;95062.55;1757130;80;21150;-81
2021/05/02 09:45:09;;;;;;;8.60;6.47;;;;;;;12.67;79.35;95084.52;1744757;80;21098;-82
2021/05/02 09:47:37;;;;;;;17.23;7.67;;;;;;;12.56;78.00;95090.02;1727958;80;21103;-81
2021/05/02 09:50:23;;;;;;;9.78;7.92;;;;;;;12.50;79.01;95090.91;1771991;79;21228;-80
2021/05/02 09:53:01;;;;;;;12.73;9.88;;;;;;;12.46;79.03;95102.80;1748906;80;21229;-81
2021/05/02 09:55:44;;;;;;;24.85;18.95;;;;;;;12.40;78.93;95108.91;1777632;79;21323;-81
2021/05/02 10:00:53;;;;;;;11.88;9.43;;;;;;;12.26;79.18;95140.07;1757798;80;21129;-81
2021/05/02 10:03:31;;;;;;;19.12;14.13;;;;;;;12.21;79.21;95133.44;1740472;81;21102;-81
2021/05/02 10:06:07;;;;;;;11.18;8.73;;;;;;;12.14;79.21;95140.03;1749584;81;21083;-80
2021/05/02 10:08:35;;;;;;;11.25;9.18;;;;;;;12.09;79.07;95144.31;1752834;80;21123;-81
2021/05/02 10:11:09;;;;;;;13.50;9.40;;;;;;;12.05;79.15;95154.89;1761575;80;21275;-81
2021/05/02 10:13:36;;;;;;;7.53;5.47;;;;;;;11.97;78.96;95159.38;1750895;80;21308;-81
2021/05/02 10:16:03;;;;;;;6.12;5.15;;;;;;;11.90;78.78;95173.50;1730860;80;21102;-81
2021/05/02 10:18:30;;;;;;;5.33;4.28;;;;;;;11.85;78.52;95188.45;1724299;80;21360;-80
2021/05/02 10:20:57;;;;;;;7.90;5.17;;;;;;;11.81;78.26;95186.00;1751247;81;21110;-81
2021/05/02 10:23:24;;;;;;;32.03;17.42;;;;;;;11.73;78.16;95195.39;1756756;80;21117;-81
2021/05/02 10:25:57;;;;;;;8.15;5.00;;;;;;;11.68;78.02;95202.52;1758204;79;21228;-81
2021/05/02 10:28:30;;;;;;;5.97;5.00;;;;;;;11.59;77.87;95206.94;1782149;80;21102;-82
2021/05/02 10:31:01;;;;;;;4.62;4.05;;;;;;;11.54;78.22;95206.27;1741179;81;21122;-81
2021/05/02 10:33:38;;;;;;;3.50;2.63;;;;;;;11.47;78.05;95221.16;1736174;81;21109;-81
2021/05/02 10:36:10;;;;;;;5.12;3.67;;;;;;;11.39;78.02;95227.95;1763280;79;21134;-82
2021/05/02 10:39:03;;;;;;;17.87;15.98;;;;;;;11.34;78.01;95234.28;1769009;79;21173;-82
2021/05/02 10:41:35;;;;;;;21.48;19.05;;;;;;;11.27;78.08;95239.55;1786854;79;21439;-81
2021/05/02 10:44:16;;;;;;;9.80;8.15;;;;;;;11.17;78.49;95239.23;1751266;80;21106;-80
2021/05/02 10:46:50;;;;;;;24.65;21.95;;;;;;;11.09;78.97;95243.41;1755834;80;21098;-80
2021/05/02 10:49:31;;;;;;;25.72;23.32;;;;;;;10.98;79.44;95252.67;1758456;80;21365;-80
2021/05/02 10:52:31;;;;;;;19.87;18.10;;;;;;;10.91;79.64;95262.84;1762913;80;21141;-80
2021/05/02 10:55:13;;;;;;;18.75;17.05;;;;;;;10.89;80.02;95278.62;1759417;80;21145;-80
2021/05/02 10:57:39;;;;;;;7.72;7.12;;;;;;;10.85;80.26;95289.14;1743347;81;21157;-86
2021/05/02 11:00:13;;;;;;;7.47;6.87;;;;;;;10.74;80.02;95295.03;1741402;80;21309;-80
2021/05/02 11:02:45;;;;;;;7.55;6.85;;;;;;;10.55;80.24;95295.91;1753774;81;21484;-80
2021/05/02 11:05:13;;;;;;;5.28;4.85;;;;;;;10.39;80.34;95301.07;1747206;80;21139;-81
2021/05/02 11:07:41;;;;;;;4.97;4.58;;;;;;;10.20;80.30;95324.28;1747124;82;21124;-80
2021/05/02 11:10:11;;;;;;;4.28;3.87;;;;;;;10.13;80.49;95346.08;1748757;81;21153;-80
2021/05/02 11:12:37;;;;;;;10.75;7.83;;;;;;;10.06;80.57;95343.48;1783662;80;21142;-80
2021/05/02 11:15:37;;;;;;;6.83;5.70;;;;;;;10.03;80.46;95343.90;1753361;81;21113;-80
2021/05/02 11:18:03;;;;;;;3.72;2.87;;;;;;;10.04;80.50;95345.48;1745038;81;21093;-80
2021/05/02 11:20:49;;;;;;;3.70;2.80;;;;;;;10.06;79.88;95360.36;1760863;79;21077;-80
2021/05/02 11:23:17;;;;;;;7.12;5.05;;;;;;;10.05;79.65;95372.23;1775789;79;21237;-80
2021/05/02 11:28:36;;;;;;;7.40;6.30;;;;;;;10.07;79.42;95355.96;1761431;79;22437;-80
2021/05/02 11:31:02;;;;;;;3.87;3.40;;;;;;;10.01;78.98;95365.87;1729566;80;21122;-80
2021/05/02 11:33:28;;;;;;;4.28;3.30;;;;;;;9.99;78.48;95375.16;1725512;80;21102;-81
2021/05/02 11:35:55;;;;;;;4.15;3.37;;;;;;;9.97;78.25;95384.95;1748959;80;21700;-81
2021/05/02 11:38:23;;;;;;;24.92;9.15;;;;;;;9.91;78.23;95377.95;1719383;82;21225;-81